Latest Weather Observations for Kowanyama

IDQ60801

Issued at 9:35 am EST Wednesday 3 September 2014 (issued every 30 minutes, with the page automatically refreshed every 10 minutes)

About weather observations | Map of weather stations | Latest weather observations for QLD | Other Formats
Station Details ID: 029038 Name: KOWANYAMA AIRPORT Lat: -15.48 Lon: 141.75 Height: 9.6 m
Data from the previous 72 hours. | See also: Recent months at Kowanyama
Date/Time
EST
Temp
°C
App
Temp
°C
Dew
Point
Rel
Hum
%
Delta-T
°C
Wind Press
QNH
hPa
Press
MSL
hPa
Rain
since 9 am
mm
Dir
 
Spd
km/h
Gust
km/h
Spd
kts
Gust
kts
03/09:30am 25.6 20.3 2.9 23 11.1 SE 20 26 11 14 1015.4 1015.3 0.0
03/09:00am 24.6 20.4 5.9 30 9.6 SSE 17 22 9 12 1015.6 1015.5 0.0
03/08:30am 21.8 21.7 14.9 65 4.1 S 9 13 5 7 1015.6 1015.5 0.0
03/08:00am 19.1 19.4 14.6 75 2.6 S 6 9 3 5 1015.6 1015.5 0.0
03/07:30am 16.4 17.3 13.9 85 1.4 SSE 2 7 1 4 1015.5 1015.4 0.0
03/07:00am 15.0 15.3 13.5 91 0.8 S 4 7 2 4 1015.2 1015.1 0.0
03/06:30am 14.9 16.0 13.6 92 0.7 CALM 0 0 0 0 1014.8 1014.7 0.0
03/06:00am 14.8 15.1 13.5 92 0.7 S 4 6 2 3 1014.3 1014.2 0.0
03/05:30am 14.9 14.8 13.4 91 0.8 SSE 6 7 3 4 1014.0 1013.9 0.0
03/05:00am 15.5 15.6 13.9 90 0.9 SE 6 9 3 5 1013.7 1013.6 0.0
03/04:30am 15.6 16.5 14.1 91 0.8 SSE 2 7 1 4 1013.5 1013.4 0.0
03/04:00am 15.9 16.3 14.8 93 0.6 SE 6 9 3 5 1013.5 1013.4 0.0
03/03:30am 16.3 18.0 15.2 93 0.6 CALM 0 0 0 0 1013.6 1013.5 0.0
03/03:00am 16.8 18.6 15.5 92 0.8 CALM 0 0 0 0 1013.7 1013.6 0.0
03/02:30am 17.6 19.6 16.1 91 0.9 CALM 0 0 0 0 1013.7 1013.6 0.0
03/02:00am 18.5 19.6 16.7 89 1.1 ESE 6 13 3 7 1014.1 1014.0 0.0
03/01:30am 18.2 17.5 17.4 95 0.5 ENE 17 26 9 14 1014.4 1014.3 0.0
03/01:00am 18.0 20.4 16.9 93 0.7 CALM 0 0 0 0 1013.9 1013.8 0.0
03/12:30am 18.5 20.3 17.5 94 0.6 SSW 4 6 2 3 1014.1 1014.0 0.0
03/12:00am 18.5 19.8 17.2 92 0.8 SW 6 7 3 4 1014.4 1014.3 0.0
 
Date/Time
EST
Temp
°C
App
Temp
°C
Dew
Point
Rel
Hum
%
Delta-T
°C
Wind Press
QNH
hPa
Press
MSL
hPa
Rain
since 9 am
mm
Dir
 
Spd
km/h
Gust
km/h
Spd
kts
Gust
kts
02/11:30pm 19.0 20.5 17.7 92 0.8 SW 6 7 3 4 1014.5 1014.4 0.0
02/11:00pm 19.1 20.6 17.6 91 0.9 SW 6 7 3 4 1014.4 1014.3 0.0
02/10:30pm 19.3 21.4 17.1 87 1.3 SW 2 9 1 5 1014.5 1014.4 0.0
02/10:00pm 19.6 21.1 16.6 83 1.8 WSW 4 7 2 4 1014.5 1014.4 0.0
02/09:30pm 20.5 21.9 17.3 82 2.0 WSW 6 6 3 3 1014.5 1014.4 0.0
02/09:00pm 21.0 22.2 16.8 77 2.6 WSW 6 9 3 5 1014.2 1014.1 0.0
02/08:30pm 22.1 23.4 17.2 74 3.0 WSW 6 7 3 4 1014.0 1013.9 0.0
02/08:00pm 22.8 23.6 17.3 71 3.4 WSW 9 13 5 7 1013.7 1013.6 0.0
02/07:30pm 23.5 24.1 16.8 66 4.1 W 9 11 5 6 1013.3 1013.2 0.0
02/07:00pm 24.7 24.9 16.7 61 4.9 WSW 11 17 6 9 1013.0 1012.9 0.0
02/06:30pm 25.8 25.5 16.4 56 5.8 WSW 13 20 7 11 1012.6 1012.5 0.0
02/06:00pm 27.8 26.5 15.8 48 7.4 WSW 17 26 9 14 1012.2 1012.1 0.0
02/05:30pm 29.2 27.6 15.0 42 8.7 WSW 17 20 9 11 1011.8 1011.7 0.0
02/05:00pm 30.0 26.9 14.5 38 9.4 WSW 24 30 13 16 1011.6 1011.5 0.0
02/04:30pm 31.7 29.6 13.5 33 11.0 WSW 17 26 9 14 1011.5 1011.4 0.0
02/04:00pm 33.8 30.3 5.4 17 15.2 ESE 13 26 7 14 1011.3 1011.2 0.0
02/03:30pm 34.4 29.5 4.0 15 16.0 SE 19 28 10 15 1011.4 1011.3 0.0
02/03:00pm 33.8 28.5 7.0 19 14.7 SSE 24 28 13 15 1011.9 1011.8 0.0
02/02:55pm 34.4 28.5 7.5 19 14.9 S 28 39 15 21 1011.7 1011.6 0.0
02/02:30pm 33.2 29.9 6.5 19 14.5 SE 13 20 7 11 1012.4 1012.3 0.0
02/02:00pm 33.4 28.8 8.1 21 14.1 SSE 22 35 12 19 1012.8 1012.7 0.0
02/01:30pm 33.6 28.8 9.0 22 13.9 SSE 24 32 13 17 1013.3 1013.2 0.0
02/01:00pm 32.1 27.4 7.7 22 13.4 SSE 22 33 12 18 1013.9 1013.8 0.0
02/12:30pm 31.5 28.1 11.3 29 11.7 ESE 20 26 11 14 1014.5 1014.4 0.0
02/12:00pm 31.0 29.7 11.4 30 11.4 E 9 13 5 7 1015.1 1015.0 0.0
02/11:30am 29.8 29.1 13.1 36 9.9 ESE 9 17 5 9 1015.6 1015.5 0.0
02/11:00am 28.7 28.2 13.8 40 8.9 NE 9 17 5 9 1016.1 1016.0 0.0
02/10:30am 27.5 27.0 13.8 43 8.1 E 9 19 5 10 1016.6 1016.5 0.0
02/10:00am 26.6 26.0 14.7 48 7.1 E 11 15 6 8 1016.9 1016.8 0.0
02/09:30am 25.1 24.5 14.6 52 6.3 ENE 11 19 6 10 1017.2 1017.1 0.0
02/09:00am 23.4 22.6 15.2 60 4.9 E 13 19 7 10 1017.1 1017.0 0.0
02/08:30am 22.2 20.7 15.3 65 4.1 ENE 17 24 9 13 1016.7 1016.6 0.0
02/08:00am 20.7 21.0 15.9 74 2.9 ENE 9 17 5 9 1016.5 1016.4 0.0
02/07:30am 19.0 19.7 15.7 81 2.0 E 6 9 3 5 1016.3 1016.2 0.0
02/07:00am 17.3 18.0 15.5 89 1.1 E 6 7 3 4 1016.2 1016.1 0.0
02/06:30am 17.2 17.8 15.2 88 1.2 E 6 9 3 5 1015.8 1015.7 0.0
02/06:00am 17.5 17.9 15.3 87 1.3 E 7 11 4 6 1015.6 1015.5 0.0
02/05:30am 17.2 17.5 15.0 87 1.3 E 7 9 4 5 1015.3 1015.2 0.0
02/05:00am 17.3 17.6 14.9 86 1.4 NE 7 9 4 5 1015.1 1015.0 0.0
02/04:30am 17.2 17.5 14.5 84 1.6 ENE 6 7 3 4 1015.3 1015.2 0.0
02/04:00am 17.9 18.1 14.6 81 1.9 ESE 7 9 4 5 1015.3 1015.2 0.0
02/03:30am 16.7 18.0 14.2 85 1.4 CALM 0 0 0 0 1015.2 1015.1 0.0
02/03:00am 16.9 18.0 14.5 86 1.4 E 2 6 1 3 1015.2 1015.1 0.0
02/02:30am 17.2 18.6 14.5 84 1.6 CALM 0 4 0 2 1015.3 1015.2 0.0
02/02:00am 17.7 19.0 14.0 79 2.1 CALM 0 0 0 0 1015.4 1015.3 0.0
02/01:30am 18.3 19.3 14.2 77 2.4 NNE 2 7 1 4 1015.3 1015.2 0.0
02/01:00am 19.2 20.0 14.7 75 2.6 N 4 7 2 4 1015.3 1015.2 0.0
02/12:30am 19.7 18.9 16.0 79 2.2 NE 15 28 8 15 1015.5 1015.4 0.0
02/12:00am 17.8 19.5 15.1 84 1.6 CALM 0 0 0 0 1014.6 1014.5 0.0
 
Date/Time
EST
Temp
°C
App
Temp
°C
Dew
Point
Rel
Hum
%
Delta-T
°C
Wind Press
QNH
hPa
Press
MSL
hPa
Rain
since 9 am
mm
Dir
 
Spd
km/h
Gust
km/h
Spd
kts
Gust
kts
01/11:30pm 18.1 19.7 15.0 82 1.8 CALM 0 0 0 0 1014.7 1014.6 0.0
01/11:00pm 19.1 21.1 16.0 82 1.8 CALM 0 0 0 0 1014.6 1014.5 0.0
01/10:30pm 19.4 21.1 15.1 76 2.5 CALM 0 0 0 0 1014.6 1014.5 0.0
01/10:00pm 20.1 21.8 15.3 74 2.8 CALM 0 0 0 0 1014.6 1014.5 0.0
01/09:30pm 21.2 21.7 15.1 68 3.6 W 6 7 3 4 1014.4 1014.3 0.0
01/09:00pm 21.8 22.1 14.9 65 4.1 WSW 7 9 4 5 1014.2 1014.1 0.0
01/08:30pm 22.7 22.9 14.8 61 4.7 WSW 7 9 4 5 1013.9 1013.8 0.0
01/08:00pm 23.5 23.2 14.5 57 5.3 WSW 9 13 5 7 1013.5 1013.4 0.0
01/07:30pm 24.4 24.1 14.5 54 5.9 SW 9 13 5 7 1013.1 1013.0 0.0
01/07:00pm 25.5 24.8 14.3 50 6.7 SW 11 15 6 8 1012.8 1012.7 0.0
01/06:30pm 26.7 25.5 14.1 46 7.5 WSW 13 17 7 9 1012.6 1012.5 0.0
01/06:00pm 28.3 26.8 14.2 42 8.5 WSW 15 20 8 11 1012.3 1012.2 0.0
01/05:30pm 29.9 28.1 14.4 38 9.4 WSW 17 20 9 11 1011.8 1011.7 0.0
01/05:00pm 30.7 28.8 14.3 36 10.0 WSW 17 24 9 13 1011.4 1011.3 0.0
01/04:30pm 32.5 30.6 7.4 21 13.8 ESE 7 11 4 6 1011.3 1011.2 0.0
01/04:00pm 32.3 29.6 7.2 21 13.7 ESE 11 20 6 11 1011.2 1011.1 0.0
01/03:30pm 32.4 30.6 8.0 22 13.5 S 7 17 4 9 1011.5 1011.4 0.0
01/03:00pm 32.0 30.3 8.3 23 13.2 WSW 7 13 4 7 1011.8 1011.7 0.0
01/02:30pm 32.6 31.0 8.8 23 13.4 W 7 13 4 7 1012.2 1012.1 0.0
01/02:00pm 31.6 29.2 8.6 24 12.8 SE 11 19 6 10 1012.7 1012.6 0.0
01/01:30pm 31.9 30.1 9.4 25 12.7 ESE 9 15 5 8 1013.4 1013.3 0.0
01/01:00pm 30.6 29.1 10.5 29 11.5 SE 9 17 5 9 1014.0 1013.9 0.0
01/12:30pm 30.3 29.2 11.8 32 10.8 E 9 17 5 9 1014.6 1014.5 0.0
01/12:00pm 29.6 28.3 12.5 35 10.0 E 11 17 6 9 1015.1 1015.0 0.0
01/11:30am 28.9 27.7 12.8 37 9.5 E 11 17 6 9 1015.6 1015.5 0.0
01/11:00am 28.0 26.8 13.9 42 8.4 E 13 20 7 11 1016.1 1016.0 0.0
01/10:30am 27.0 26.2 14.1 45 7.7 NE 11 19 6 10 1016.4 1016.3 0.0
01/10:00am 26.6 26.1 15.0 49 7.0 E 11 15 6 8 1016.6 1016.5 0.0
01/09:30am 24.9 23.9 14.7 53 6.1 ENE 13 20 7 11 1016.7 1016.7 0.0
01/09:00am 23.6 22.2 14.6 57 5.3 ENE 15 22 8 12 1016.7 1016.7 0.0
01/08:30am 22.5 21.8 15.4 64 4.2 ENE 13 20 7 11 1016.4 1016.4 0.0
01/08:00am 20.8 22.5 16.2 75 2.8 ENE 2 7 1 4 1016.2 1016.2 0.0
01/07:30am 17.9 19.6 15.3 85 1.5 CALM 0 0 0 0 1015.9 1015.9 0.0
01/07:00am 16.7 17.6 15.1 90 0.9 E 4 6 2 3 1015.6 1015.6 0.0
01/06:30am 16.9 18.5 14.9 88 1.2 CALM 0 0 0 0 1015.3 1015.3 0.0
01/06:00am 17.7 19.3 15.0 84 1.6 CALM 0 0 0 0 1015.0 1015.0 0.0
01/05:30am 18.5 19.8 15.2 81 1.9 NE 2 6 1 3 1014.5 1014.5 0.0
01/05:00am 19.2 19.9 15.5 79 2.2 NE 6 7 3 4 1014.3 1014.2 0.0
01/04:30am 19.6 20.2 15.7 78 2.3 NE 7 13 4 7 1014.2 1014.1 0.0
01/04:00am 19.8 20.2 15.2 75 2.7 NE 7 13 4 7 1014.0 1013.9 0.0
01/03:30am 19.5 19.9 14.7 74 2.8 NE 6 9 3 5 1013.7 1013.6 0.0
01/03:00am 19.8 20.1 14.4 71 3.1 ENE 6 7 3 4 1013.6 1013.5 0.0
01/02:30am 20.6 20.4 14.7 69 3.5 E 9 11 5 6 1013.8 1013.7 0.0
01/02:00am 20.4 20.7 15.0 71 3.2 E 7 11 4 6 1013.7 1013.6 0.0
01/01:30am 20.5 21.0 15.5 73 3.0 E 7 13 4 7 1014.0 1013.9 0.0
01/01:00am 19.5 18.9 17.5 88 1.2 ENE 17 28 9 15 1013.8 1013.7 0.0
01/12:30am 19.4 21.1 17.2 87 1.3 S 4 7 2 4 1013.3 1013.2 0.0
01/12:00am 19.9 21.7 17.3 85 1.6 S 4 6 2 3 1013.5 1013.4 0.0
 
Date/Time
EST
Temp
°C
App
Temp
°C
Dew
Point
Rel
Hum
%
Delta-T
°C
Wind Press
QNH
hPa
Press
MSL
hPa
Rain
since 9 am
mm
Dir
 
Spd
km/h
Gust
km/h
Spd
kts
Gust
kts
31/11:30pm 20.3 21.7 17.3 83 1.8 S 6 9 3 5 1013.7 1013.6 0.0
31/11:00pm 20.9 21.9 17.7 82 2.0 S 9 13 5 7 1013.8 1013.7 0.0
31/10:30pm 21.3 22.3 17.7 80 2.2 SSW 9 13 5 7 1013.7 1013.6 0.0
31/10:00pm 21.7 22.0 17.9 79 2.4 SSW 13 19 7 10 1013.6 1013.5 0.0
31/09:30pm 22.1 22.0 17.9 77 2.6 SSW 15 20 8 11 1013.5 1013.4 0.0
31/09:00pm 22.3 21.5 17.2 73 3.1 SSW 17 22 9 12 1013.4 1013.3 0.0
31/08:30pm 22.6 21.8 17.1 71 3.4 SSW 17 22 9 12 1013.0 1012.9 0.0
31/08:00pm 23.2 22.5 16.5 66 4.1 SSW 15 22 8 12 1012.7 1012.6 0.0
31/07:30pm 23.8 23.4 16.1 62 4.7 SSW 13 17 7 9 1012.3 1012.2 0.0
31/07:00pm 24.5 23.9 15.7 58 5.3 SW 13 20 7 11 1012.0 1011.9 0.0
31/06:30pm 25.8 25.0 15.2 52 6.4 SW 13 20 7 11 1011.7 1011.6 0.0
31/06:00pm 27.6 25.7 14.3 44 8.0 WSW 17 22 9 12 1011.2 1011.1 0.0
31/05:30pm 28.7 26.2 14.1 40 8.8 WSW 20 28 11 15 1010.9 1010.8 0.0
31/05:00pm 29.8 27.7 13.5 36 9.7 WSW 17 20 9 11 1010.7 1010.6 0.0
31/04:30pm 31.7 29.5 8.0 23 13.1 E 9 13 5 7 1010.5 1010.4 0.0
31/04:00pm 31.3 28.3 7.7 23 12.9 SSE 13 20 7 11 1010.5 1010.4 0.0
31/03:30pm 31.5 29.2 9.1 25 12.6 SE 11 17 6 9 1010.5 1010.4 0.0
31/03:00pm 31.5 29.2 9.1 25 12.6 SSE 11 20 6 11 1010.9 1010.8 0.0
31/02:30pm 31.0 28.8 9.3 26 12.2 S 11 19 6 10 1011.3 1011.2 0.0
31/02:00pm 30.7 28.6 9.6 27 11.9 ESE 11 22 6 12 1011.9 1011.8 0.0
31/01:30pm 30.4 28.2 9.3 27 11.8 S 11 17 6 9 1012.6 1012.5 0.0
31/01:00pm 30.8 28.8 10.2 28 11.7 ESE 11 20 6 11 1013.1 1013.0 0.0
31/12:30pm 29.6 27.3 11.6 33 10.4 ESE 15 20 8 11 1013.6 1013.5 0.0
31/12:00pm 28.6 27.3 12.5 37 9.4 E 11 19 6 10 1014.2 1014.1 0.0
31/11:30am 28.2 26.8 12.1 37 9.3 E 11 19 6 10 1014.9 1014.9 0.0
31/11:00am 27.9 26.6 13.8 42 8.4 E 13 22 7 12 1015.4 1015.4 0.0
31/10:30am 27.1 25.8 13.8 44 7.9 E 13 20 7 11 1015.8 1015.8 0.0
31/10:00am 25.8 24.5 13.6 47 7.2 ENE 13 19 7 10 1016.1 1016.1 0.0

Other Formats:

Comma delimited format used in spreadsheet applications
http://www.bom.gov.au/fwo/IDQ60801/IDQ60801.94268.axf

JavaScript Object Notation format (JSON) in row-major order
http://www.bom.gov.au/fwo/IDQ60801/IDQ60801.94268.json